Bewolking Meer informatie Parkstad Weather Satellite


Neerslagradar Meer informatie Parkstad Rain Snow Radar


Onweersbuien Meer informatie Parkstad Lighntning


24/7 Weercamera Meer informatie Parkstad Weathercam


Natuurbrandrisico
CBI






Het weer levert geen direct gevaar op in Parkstad.    Er zijn geen waarschuwingen afgegeven voor Parkstad (045)

METAR rapporten vliegvelden

   
EHBK - Beek Nederland
Gewijzigd: 16-07-2019 20:25
Gedeeltelijk bewolkt  
Gedeeltelijk bewolkt  
   Wind: varieert 1.9 km/h
Wind: varieert 1.9 km/h
Temperatuur: 19°C
Dauwpunt: 11°C
Vochtigheid: 60%
Barometer: 1017 hPa
Satelliet beelden: Gedeeltelijk bewolkt
Zicht: meer dan 10 km
Bewolking: Gedeeltelijk bewolkt
EHBK 161825Z AUTO VRB01KT 9999 NSC 19/11 Q1017 NOSIG
EHBK - Maastricht Nederland
Gewijzigd: 16-07-2019 20:25
Gedeeltelijk bewolkt  
Gedeeltelijk bewolkt  
   Wind: varieert 1.9 km/h
Wind: varieert 1.9 km/h
Temperatuur: 19°C
Dauwpunt: 11°C
Vochtigheid: 60%
Barometer: 1017 hPa
Satelliet beelden: Gedeeltelijk bewolkt
Zicht: meer dan 10 km
Bewolking: Gedeeltelijk bewolkt
EHBK 161825Z AUTO VRB01KT 9999 NSC 19/11 Q1017 NOSIG
EBLG - Liège België
Gewijzigd: 16-07-2019 20:20
Licht bewolkt  
Licht bewolkt  
   Wind: NNW 5.6 km/h
Wind: NNW 5.6 km/h
Temperatuur: 18°C
Dauwpunt: 11°C
Vochtigheid: 64%
Barometer: 1018 hPa
Satelliet beelden: Licht bewolkt
Zicht: meer dan 10 km
Bewolking: Licht bewolkt 1067 m
EBLG 161820Z 34003KT 310V030 9999 FEW035 18/11 Q1018 NOSIG
EDDK - Köln/Bonn Duitsland
Gewijzigd: 16-07-2019 20:20
Helder  
Helder  
   Wind: NNW 7.4 km/h
Wind: NNW 7.4 km/h
Temperatuur: 18°C
Dauwpunt: 11°C
Vochtigheid: 64%
Barometer: 1017 hPa
Zicht: meer dan 10 km
Bewolking: Helder
EDDK 161820Z 34004KT CAVOK 18/11 Q1017 NOSIG
EDDL - Düsseldorf Duitsland
Gewijzigd: 16-07-2019 20:20
Gedeeltelijk bewolkt  
Gedeeltelijk bewolkt  
   Wind: NNO 9.3 km/h
Wind: NNO 9.3 km/h
Temperatuur: 20°C
Dauwpunt: 11°C
Vochtigheid: 56%
Barometer: 1017 hPa
Satelliet beelden: Gedeeltelijk bewolkt
Zicht: meer dan 10 km
Bewolking: Gedeeltelijk bewolkt 1097 m
EDDL 161820Z 02005KT 360V060 9999 SCT036 20/11 Q1017 NOSIG
EHEH - Eindhoven Nederland
Gewijzigd: 16-07-2019 20:25
Grotendeels bewolkt  
Grotendeels bewolkt  
   Wind: NW 9.3 km/h
Wind: NW 9.3 km/h
Temperatuur: 20°C
Dauwpunt: 11°C
Vochtigheid: 56%
Barometer: 1017 hPa
Satelliet beelden: Grotendeels bewolkt
Zicht: meer dan 10 km
Bewolking: Grotendeels bewolkt 6706 m
EHEH 161825Z AUTO 31005KT 300V020 9999 BKN220 20/11 Q1017 BLU 30004KT CAVOK
ELLX - Luxemburg Luxemburg
Gewijzigd: 16-07-2019 20:20
Helder  
Helder  
   Wind: NW 7.4 km/h
Wind: NW 7.4 km/h
Temperatuur: 22°C
Dauwpunt: 8°C
Vochtigheid: 41%
Barometer: 1017 hPa
Zicht: meer dan 10 km
Bewolking: Helder
ELLX 161820Z 31004KT 280V350 CAVOK 22/08 Q1017 NOSIG
EGLL - London England
Gewijzigd: 16-07-2019 20:20
Helder  
Helder  
   Wind: ZZW 22.2 km/h
Wind: ZZW 22.2 km/h
Temperatuur: 24°C
Dauwpunt: 13°C
Vochtigheid: 50%
Barometer: 1017 hPa
Satelliet beelden: Helder
Zicht: meer dan 10 km
Bewolking: Helder
EGLL 161820Z AUTO 20012KT 9999 NCD 24/13 Q1017
EBAW - Antwerpen België
Gewijzigd: 16-07-2019 20:20
Licht bewolkt  
Licht bewolkt  
   Wind: Noorden 7.4 km/h
Wind: Noorden 7.4 km/h
Temperatuur: 19°C
Dauwpunt: 11°C
Vochtigheid: 60%
Barometer: 1018 hPa
Satelliet beelden: Licht bewolkt
Zicht: meer dan 10 km
Bewolking: Licht bewolkt 1189 m
EBAW 161820Z 35004KT 300V030 9999 FEW039 19/11 Q1018 NOSIG
EBOS - Oostende België
Gewijzigd: 16-07-2019 20:20
Licht bewolkt  
Licht bewolkt  
   Wind: NNW 7.4 km/h
Wind: NNW 7.4 km/h
Temperatuur: 18°C
Dauwpunt: 12°C
Vochtigheid: 68%
Barometer: 1018 hPa
Satelliet beelden: Licht bewolkt
Zicht: meer dan 10 km
Bewolking: Licht bewolkt 914 m
EBOS 161820Z 33004KT 300V360 9999 FEW030 18/12 Q1018 NOSIG
LEAL - La Nucia Spanje
Gewijzigd: 16-07-2019 20:30
Helder  
Helder  
   Wind: Oosten 18.5 km/h
Wind: Oosten 18.5 km/h
Temperatuur: 27°C
Gevoelstemperatuur: 28°C
Dauwpunt: 19°C
Vochtigheid: 62%
Barometer: 1014 hPa
Zicht: meer dan 10 km
Bewolking: Helder
LEAL 161830Z 08010KT CAVOK 27/19 Q1014 NOSIG
TNCA - Oranjestad Aruba
Gewijzigd: 16-07-2019 20:00
Kleine regenbuien, Neerslag, Gedeeltelijk bewolkt  
Kleine regenbuien, Neerslag, Gedeeltelijk bewolkt  
   Wind: Oosten 40.7 km/h
Wind: Oosten 40.7 km/h
Temperatuur: 31°C
Gevoelstemperatuur: 37°C
Dauwpunt: 24°C
Vochtigheid: 66%
Barometer: 1013 hPa
Satelliet beelden: Gedeeltelijk bewolkt
Zicht: meer dan 10 km
Bewolking: Gedeeltelijk bewolkt 427 m
TNCA 161800Z 08022KT 9999 -SHRA SCT014 31/24 Q1013 NOSIG
TNCC - Willemstad Curacao
Gewijzigd: 16-07-2019 20:00
Licht bewolkt  
Licht bewolkt  
   Wind: Oosten 27.8 km/h
Wind: Oosten 27.8 km/h
Temperatuur: 31°C
Gevoelstemperatuur: 36°C
Dauwpunt: 23°C
Vochtigheid: 62%
Barometer: 1014 hPa
Satelliet beelden: Licht bewolkt
Zicht: meer dan 10 km
Bewolking: Licht bewolkt 640 m
TNCC 161800Z 10015KT 9999 FEW021 31/23 Q1014 NOSIG
MTPP - Port au Prince Haitië
Gewijzigd: 16-07-2019 19:59
  
  
   Wind: Oosten 33.3 km/h
Wind: Oosten 33.3 km/h
Temperatuur: 36°C
Dauwpunt: 17°C
Vochtigheid: 32%
Barometer: 1015 hPa
MTPP 161759Z AUTO 10018KT //// ////// 36/17 Q1015 A2998 NOSIG
ENVA - Trondheim Noorwegen
Gewijzigd: 16-07-2019 20:20
Grotendeels bewolkt  
Grotendeels bewolkt  
   Wind: Westen 11.1 km/h
Wind: Westen 11.1 km/h
Temperatuur: 15°C
Dauwpunt: 8°C
Vochtigheid: 63%
Barometer: 1015 hPa
Satelliet beelden: Grotendeels bewolkt
Zicht: meer dan 10 km
Bewolking: Grotendeels bewolkt 1402 m
ENVA 161820Z 27006KT 9999 BKN046 15/08 Q1015 NOSIG RMK WIND 670FT 30006KT
ENBO - Bodø Noorwegen
Gewijzigd: 16-07-2019 20:20
Grotendeels bewolkt  
Grotendeels bewolkt  
   Wind: Westen 9.3 km/h
Wind: Westen 9.3 km/h
Temperatuur: 12°C
Dauwpunt: 8°C
Vochtigheid: 77%
Barometer: 1016 hPa
Satelliet beelden: Grotendeels bewolkt
Zicht: meer dan 10 km
Bewolking: Licht bewolkt 610 m,
Gedeeltelijk bewolkt 1067 m,
Grotendeels bewolkt 2896 m
ENBO 161820Z 26005KT 9999 FEW020 SCT035 BKN095 12/08 Q1016 NOSIG
ETNG - Geilenkirchen Duitsland
Gewijzigd: 16-07-2019 19:50
Grotendeels bewolkt  
Grotendeels bewolkt  
   Wind: NW 3.7 km/h
Wind: NW 3.7 km/h
Temperatuur: 20°C
Dauwpunt: 11°C
Vochtigheid: 56%
Barometer: 1018 hPa
Satelliet beelden: Grotendeels bewolkt
Zicht: meer dan 10 km
Bewolking: Licht bewolkt 1219 m,
Grotendeels bewolkt 9144 m
ETNG 161750Z 32002KT 9999 FEW040 BKN300 20/11 Q1018 NOSIG
 

Script ontwikkeld door  Saratoga-weather.org Aangepast voor de template door  Weerstation Leuven

U vindt ons ook hier:

Het Weer Aktueel

WOW Nederland KNMI

Vereniging voor Weerkunde en Klimatologie

UK Met Office Weather Observation Website (WOW)

WeatherCloud

Weather Underground

Awekas

Weatherlink IP

HAMweather, WeatherForYou, PWS Weather

Citizen Weather Observer Program (CWOP)

Apparatuur in gebruik:

Hardwareleverancier
Weerhuisje

Weerstation
Vantage Pro2+ UV

Weercomputer's
alix3d2 & wl330n

Weerprogramma's
Smartbedded

Satelliet NOAA's
WRX137 & KX137

Satelliet Eumetsat
Ayecka SR1 & Triax

Bliksemdetectie
Boltek StormTracker

Webleverancier
F-Service

Weerhuisje

Vantage Pro2+ UV

alix3d2 & wl330n

Smartbedded

WRX137 & KX137

Ayecka SR1 & Triax

Boltek StormTracker

F-Service